Time;durP1;ratioP1;P1;durP2;ratioP2;P2;SDS_P1;SDS_P2;PMS_P1;PMS_P2;Temp;Humidity;BMP_temperature;BMP_pressure;BME280_temperature;BME280_humidity;BME280_pressure;Samples;Min_cycle;Max_cycle;Signal;HPM_P1;HPM_P2
2023/04/30 00:02:03;;;;;;;27.40;16.97;;;;;;;11.07;73.60;100155.83;1480693;86;21567;-79
2023/04/30 00:04:30;;;;;;;22.07;15.77;;;;;;;11.00;74.05;100163.58;1473861;88;21374;-81
2023/04/30 00:06:56;;;;;;;21.80;14.87;;;;;;;10.88;75.54;100164.02;1463088;88;22475;-81
2023/04/30 00:09:22;;;;;;;26.20;16.00;;;;;;;10.74;76.00;100162.26;1478910;88;22484;-82
2023/04/30 00:11:49;;;;;;;21.40;14.33;;;;;;;10.63;76.46;100157.22;1477140;88;21388;-81
2023/04/30 00:14:15;;;;;;;27.87;16.53;;;;;;;10.55;77.25;100165.09;1479778;88;21558;-81
2023/04/30 00:16:41;;;;;;;28.57;15.13;;;;;;;10.46;78.29;100159.40;1478191;88;22232;-81
2023/04/30 00:19:07;;;;;;;21.20;13.43;;;;;;;10.41;77.15;100159.84;1477479;88;21389;-80
2023/04/30 00:21:34;;;;;;;22.63;15.37;;;;;;;10.37;77.57;100154.03;1477692;88;21602;-81
2023/04/30 00:24:00;;;;;;;27.17;16.00;;;;;;;10.27;79.02;100161.24;1460275;88;22253;-81
2023/04/30 00:26:26;;;;;;;23.67;15.50;;;;;;;10.18;78.97;100156.80;1468273;88;21322;-81
2023/04/30 00:28:53;;;;;;;24.33;15.87;;;;;;;10.12;78.99;100156.09;1473477;88;21382;-81
2023/04/30 00:31:19;;;;;;;24.47;15.00;;;;;;;10.02;79.80;100150.06;1478678;88;21528;-80
2023/04/30 00:33:45;;;;;;;26.00;15.13;;;;;;;9.94;80.24;100154.77;1476097;88;22268;-81
2023/04/30 00:36:11;;;;;;;25.40;16.13;;;;;;;9.90;79.96;100157.39;1469340;88;21811;-82
2023/04/30 00:38:38;;;;;;;25.93;13.00;;;;;;;9.86;80.11;100152.04;1476036;88;21412;-81
2023/04/30 00:41:05;;;;;;;25.03;14.70;;;;;;;9.84;80.46;100147.38;1478605;88;21603;-82
2023/04/30 00:43:33;;;;;;;29.73;15.03;;;;;;;9.79;81.04;100142.56;1469253;88;21411;-80
2023/04/30 00:45:59;;;;;;;24.40;14.87;;;;;;;9.73;80.55;100147.12;1477598;88;21562;-80
2023/04/30 00:48:26;;;;;;;24.10;14.73;;;;;;;9.66;80.77;100146.05;1459961;88;21307;-81
2023/04/30 00:50:53;;;;;;;26.70;15.00;;;;;;;9.59;80.49;100147.63;1477934;88;21552;-81
2023/04/30 00:53:19;;;;;;;19.87;14.43;;;;;;;9.54;80.05;100151.20;1462279;88;21448;-80
2023/04/30 00:55:46;;;;;;;24.33;15.43;;;;;;;9.51;81.01;100150.18;1482180;88;21425;-81
2023/04/30 00:58:12;;;;;;;26.80;14.40;;;;;;;9.45;80.98;100148.46;1479492;88;22365;-80
2023/04/30 01:00:42;;;;;;;21.00;13.93;;;;;;;9.41;81.40;100147.11;1485580;88;21972;-81
2023/04/30 01:03:07;;;;;;;24.90;14.17;;;;;;;9.40;81.80;100153.34;1463634;88;21522;-81
2023/04/30 01:05:33;;;;;;;23.10;15.10;;;;;;;9.39;82.12;100149.55;1477293;88;21913;-81
2023/04/30 01:07:59;;;;;;;22.40;15.70;;;;;;;9.34;82.12;100151.30;1477055;88;22476;-81
2023/04/30 01:10:30;;;;;;;31.00;17.27;;;;;;;9.27;82.38;100155.52;1477539;88;21360;-82
2023/04/30 01:13:00;;;;;;;23.07;16.30;;;;;;;9.21;82.47;100154.78;1473494;88;22350;-83
2023/04/30 01:16:06;;;;;;;30.32;16.42;;;;;;;9.15;82.62;100159.29;1476338;88;21477;-82
2023/04/30 01:18:39;;;;;;;28.93;16.60;;;;;;;9.07;83.26;100159.21;1431400;88;21459;-83
2023/04/30 01:21:06;;;;;;;28.40;16.00;;;;;;;9.01;83.31;100162.77;1478680;88;21470;-80
2023/04/30 01:23:38;;;;;;;25.23;15.83;;;;;;;8.97;83.38;100157.90;1460894;88;22253;-80
2023/04/30 01:26:25;;;;;;;25.03;16.97;;;;;;;8.93;84.77;100161.32;1479196;88;21782;-80
2023/04/30 01:28:53;;;;;;;23.23;13.87;;;;;;;8.93;84.12;100165.28;1479975;88;21493;-80
2023/04/30 01:31:21;;;;;;;27.60;15.33;;;;;;;8.92;83.82;100167.59;1475108;88;21418;-82
2023/04/30 01:33:48;;;;;;;25.47;14.83;;;;;;;8.88;85.39;100166.19;1480514;88;21447;-80
2023/04/30 01:36:35;;;;;;;27.40;16.97;;;;;;;8.78;86.58;100169.36;1478525;88;21337;-81
2023/04/30 01:39:07;;;;;;;27.87;16.53;;;;;;;8.71;85.93;100170.88;1480228;87;22844;-81
2023/04/30 01:42:06;;;;;;;29.03;18.77;;;;;;;8.62;87.20;100173.88;1480991;87;21639;-81
2023/04/30 01:44:55;;;;;;;23.67;14.63;;;;;;;8.55;88.31;100170.98;1479723;88;21418;-81
2023/04/30 01:48:11;;;;;;;26.03;16.03;;;;;;;8.48;88.70;100171.19;1481884;88;21506;-81
2023/04/30 01:50:55;;;;;;;23.70;15.33;;;;;;;8.48;88.10;100166.41;1476323;88;22431;-81
2023/04/30 01:53:25;;;;;;;27.57;16.00;;;;;;;8.47;87.63;100158.16;1486780;88;22327;-82
2023/04/30 01:56:05;;;;;;;26.90;17.20;;;;;;;8.47;87.30;100162.94;1471740;88;21470;-82
2023/04/30 01:58:32;;;;;;;25.27;15.70;;;;;;;8.45;87.12;100159.60;1473116;88;21495;-82
2023/04/30 02:00:58;;;;;;;31.67;15.90;;;;;;;8.43;87.04;100165.52;1476629;88;21329;-81
2023/04/30 02:03:24;;;;;;;23.00;15.77;;;;;;;8.39;87.78;100168.08;1478455;88;21543;-82
2023/04/30 02:05:50;;;;;;;26.80;14.73;;;;;;;8.31;88.11;100162.14;1476572;88;21389;-83
2023/04/30 02:08:17;;;;;;;29.83;14.33;;;;;;;8.27;88.40;100158.13;1475942;88;22402;-83
2023/04/30 02:10:43;;;;;;;20.90;14.20;;;;;;;8.26;88.26;100160.43;1477441;88;21404;-83
2023/04/30 02:13:09;;;;;;;28.83;15.40;;;;;;;8.27;87.69;100158.63;1475825;88;21351;-82
2023/04/30 02:15:35;;;;;;;21.97;14.43;;;;;;;8.28;87.33;100153.69;1477536;88;21256;-82
2023/04/30 02:18:02;;;;;;;27.10;15.67;;;;;;;8.26;87.57;100160.43;1482087;88;22402;-82
2023/04/30 02:20:28;;;;;;;23.90;15.30;;;;;;;8.25;87.01;100159.23;1472104;88;21440;-81
2023/04/30 02:22:54;;;;;;;25.70;17.00;;;;;;;8.19;88.23;100158.48;1483123;88;21359;-81
2023/04/30 02:25:20;;;;;;;27.63;17.77;;;;;;;8.16;87.02;100153.48;1484192;88;21517;-81
2023/04/30 02:27:49;;;;;;;28.83;16.53;;;;;;;8.12;87.84;100158.21;1475917;88;22321;-82
2023/04/30 02:30:15;;;;;;;28.73;15.50;;;;;;;8.08;87.69;100162.90;1476961;87;21381;-82
2023/04/30 02:32:41;;;;;;;22.07;14.90;;;;;;;8.03;88.82;100163.82;1475755;88;21373;-83
2023/04/30 02:35:08;;;;;;;20.37;13.57;;;;;;;7.98;89.80;100165.20;1480631;88;21479;-82
2023/04/30 02:37:34;;;;;;;26.93;15.57;;;;;;;7.92;89.75;100173.17;1474686;88;22350;-82
2023/04/30 02:40:00;;;;;;;24.20;15.07;;;;;;;7.86;90.66;100165.81;1472573;88;21478;-80
2023/04/30 02:42:26;;;;;;;22.17;14.23;;;;;;;7.83;89.54;100169.55;1480379;88;21366;-81
2023/04/30 02:44:52;;;;;;;20.63;14.70;;;;;;;7.81;89.99;100167.53;1478172;88;21521;-82
2023/04/30 02:47:19;;;;;;;28.83;17.60;;;;;;;7.80;89.90;100169.83;1462104;88;21463;-82
2023/04/30 02:49:45;;;;;;;23.87;15.77;;;;;;;7.75;89.72;100166.76;1473319;88;21329;-82
2023/04/30 02:52:11;;;;;;;23.77;15.33;;;;;;;7.71;90.71;100169.78;1474050;88;21345;-81
2023/04/30 02:54:37;;;;;;;29.23;14.60;;;;;;;7.62;90.36;100170.97;1479616;88;21611;-82
2023/04/30 02:57:03;;;;;;;22.23;16.23;;;;;;;7.58;90.86;100173.51;1478311;88;21344;-81
2023/04/30 02:59:29;;;;;;;23.77;14.10;;;;;;;7.56;90.80;100169.34;1465604;88;21323;-82
2023/04/30 03:01:56;;;;;;;20.83;16.07;;;;;;;7.57;91.51;100176.29;1472201;88;21588;-82
2023/04/30 03:04:22;;;;;;;21.20;13.37;;;;;;;7.56;90.68;100172.80;1459689;88;22335;-81
2023/04/30 03:06:48;;;;;;;26.50;16.03;;;;;;;7.57;89.80;100172.34;1482224;88;21897;-81
2023/04/30 03:09:14;;;;;;;20.97;14.40;;;;;;;7.57;90.47;100178.92;1476834;88;21397;-81
2023/04/30 03:11:41;;;;;;;19.87;12.40;;;;;;;7.54;91.91;100179.16;1486402;88;22053;-80
2023/04/30 03:14:07;;;;;;;23.83;13.33;;;;;;;7.26;92.07;100186.84;1480080;88;21337;-84
2023/04/30 03:16:33;;;;;;;25.17;13.87;;;;;;;7.07;92.17;100186.26;1476709;88;22291;-84
2023/04/30 03:18:59;;;;;;;21.67;14.90;;;;;;;6.99;92.57;100192.65;1475222;88;21537;-84
2023/04/30 03:21:25;;;;;;;24.23;15.00;;;;;;;6.99;92.26;100186.07;1479512;88;21522;-84
2023/04/30 03:23:51;;;;;;;21.17;15.37;;;;;;;7.03;92.18;100188.81;1483887;88;21389;-85
2023/04/30 03:26:18;;;;;;;21.80;13.50;;;;;;;7.07;93.05;100190.69;1489352;88;21632;-84
2023/04/30 03:28:44;;;;;;;20.53;13.87;;;;;;;7.11;93.23;100193.44;1479045;88;21301;-83
2023/04/30 03:31:10;;;;;;;26.90;15.13;;;;;;;7.13;93.29;100194.94;1475108;88;21469;-84
2023/04/30 03:33:36;;;;;;;25.30;14.27;;;;;;;7.16;93.13;100199.97;1459036;88;21471;-82
2023/04/30 03:36:03;;;;;;;27.30;15.63;;;;;;;7.10;94.45;100203.09;1477186;88;22298;-84
2023/04/30 03:38:29;;;;;;;22.80;14.57;;;;;;;7.05;93.46;100202.68;1473513;88;21314;-82
2023/04/30 03:40:55;;;;;;;27.93;17.50;;;;;;;7.03;95.00;100209.86;1477394;88;22239;-83
2023/04/30 03:43:22;;;;;;;22.23;14.67;;;;;;;7.05;94.12;100215.84;1479014;88;21418;-84
2023/04/30 03:45:48;;;;;;;22.03;14.67;;;;;;;7.10;92.96;100209.67;1441264;88;21337;-84
2023/04/30 03:48:15;;;;;;;23.93;14.17;;;;;;;7.17;93.19;100212.16;1481292;88;21463;-82
2023/04/30 03:50:41;;;;;;;26.00;15.23;;;;;;;7.22;93.42;100219.19;1483493;88;22402;-81
2023/04/30 03:53:07;;;;;;;17.87;13.47;;;;;;;7.23;93.28;100218.70;1476910;88;21492;-80
2023/04/30 03:55:34;;;;;;;21.97;14.17;;;;;;;7.23;93.29;100216.89;1476292;88;21411;-80
2023/04/30 03:58:00;;;;;;;24.27;16.47;;;;;;;7.22;93.16;100223.13;1459137;88;21426;-81
2023/04/30 04:00:26;;;;;;;64.07;34.57;;;;;;;7.21;93.92;100229.34;1476496;88;21314;-81
2023/04/30 04:02:53;;;;;;;45.97;26.10;;;;;;;7.20;94.19;100222.42;1480111;88;21447;-82
2023/04/30 04:05:20;;;;;;;32.10;18.80;;;;;;;7.27;93.21;100230.62;1480056;88;22482;-82
2023/04/30 04:07:48;;;;;;;289.73;120.50;;;;;;;7.34;93.51;100223.05;1478416;88;21417;-82
2023/04/30 04:10:14;;;;;;;142.90;62.33;;;;;;;7.38;93.98;100220.00;1467589;88;21366;-83
2023/04/30 04:12:40;;;;;;;60.23;34.60;;;;;;;7.43;93.80;100230.16;1478447;88;21382;-82
2023/04/30 04:15:08;;;;;;;50.93;28.70;;;;;;;7.49;94.04;100230.94;1484519;88;22361;-82
2023/04/30 04:17:35;;;;;;;53.43;29.33;;;;;;;7.52;94.07;100237.25;1478382;88;21419;-82
2023/04/30 04:20:01;;;;;;;29.30;17.97;;;;;;;7.55;93.87;100233.03;1476771;88;21373;-83
2023/04/30 04:26:27;;;;;;;126.33;73.60;;;;;;;7.68;94.83;100237.59;1478391;88;21695;-83
2023/04/30 04:28:54;;;;;;;62.40;39.60;;;;;;;7.82;94.51;100231.59;1481541;88;21367;-83
2023/04/30 04:31:21;;;;;;;39.70;25.33;;;;;;;7.92;93.85;100229.83;1480883;88;21530;-81
2023/04/30 04:33:47;;;;;;;59.73;31.67;;;;;;;8.07;93.55;100235.05;1470792;88;22306;-82
2023/04/30 04:36:15;;;;;;;38.87;23.27;;;;;;;8.23;93.28;100237.17;1481729;88;21529;-83
2023/04/30 04:38:41;;;;;;;208.97;108.23;;;;;;;8.35;93.52;100237.87;1460737;88;21359;-84
2023/04/30 04:41:08;;;;;;;320.43;176.87;;;;;;;8.45;92.85;100241.85;1484367;88;21360;-82
2023/04/30 04:43:34;;;;;;;126.80;69.57;;;;;;;8.53;92.76;100241.50;1472869;88;21294;-82
2023/04/30 04:46:00;;;;;;;41.27;25.20;;;;;;;8.62;92.34;100240.33;1478805;88;21381;-81
2023/04/30 04:48:26;;;;;;;23.57;14.40;;;;;;;8.72;92.20;100245.13;1461383;88;22171;-81
2023/04/30 04:50:52;;;;;;;14.63;10.17;;;;;;;8.88;91.87;100245.37;1479775;88;21447;-82
2023/04/30 04:53:20;;;;;;;19.30;12.20;;;;;;;9.07;91.63;100251.61;1478598;88;22386;-84
2023/04/30 04:55:46;;;;;;;15.87;12.00;;;;;;;9.28;91.22;100242.99;1482764;88;21256;-81
2023/04/30 04:58:13;;;;;;;27.83;16.03;;;;;;;9.49;90.54;100246.27;1447150;88;21330;-82
2023/04/30 05:00:39;;;;;;;25.30;14.87;;;;;;;9.72;89.84;100243.23;1471739;88;21587;-82
2023/04/30 05:03:05;;;;;;;26.67;14.93;;;;;;;9.94;89.12;100234.91;1476317;88;21367;-82
2023/04/30 05:05:31;;;;;;;24.23;16.07;;;;;;;10.14;87.73;100242.23;1480803;88;21389;-81
2023/04/30 05:07:57;;;;;;;36.30;20.30;;;;;;;10.27;86.90;100241.92;1475280;88;21676;-82
2023/04/30 05:10:23;;;;;;;73.23;47.93;;;;;;;10.37;87.65;100237.37;1463283;88;22388;-82
2023/04/30 05:12:50;;;;;;;44.47;25.70;;;;;;;10.41;86.33;100248.48;1478467;88;21330;-82
2023/04/30 05:15:16;;;;;;;35.57;22.03;;;;;;;10.44;85.70;100247.34;1484078;88;21463;-80
2023/04/30 05:17:42;;;;;;;20.67;14.93;;;;;;;10.49;85.96;100249.05;1474276;88;21373;-80
2023/04/30 05:20:11;;;;;;;24.90;14.50;;;;;;;10.56;86.05;100248.80;1461016;88;21469;-80
2023/04/30 05:22:37;;;;;;;16.83;10.87;;;;;;;10.65;85.35;100249.70;1476987;88;21456;-79
2023/04/30 05:25:05;;;;;;;17.93;11.50;;;;;;;10.78;85.10;100245.66;1479452;88;22447;-79
2023/04/30 05:27:31;;;;;;;15.00;10.53;;;;;;;10.95;84.67;100245.80;1478001;88;21389;-79
2023/04/30 05:29:58;;;;;;;19.20;11.67;;;;;;;11.03;82.54;100244.53;1473448;86;21271;-81
2023/04/30 05:32:26;;;;;;;57.47;30.37;;;;;;;11.11;82.55;100252.54;1475706;88;21337;-82
2023/04/30 05:34:53;;;;;;;54.50;34.40;;;;;;;11.19;81.79;100256.57;1477436;88;21329;-81
2023/04/30 05:37:21;;;;;;;21.03;14.73;;;;;;;11.33;82.04;100257.80;1477692;88;21425;-82
2023/04/30 05:39:48;;;;;;;20.83;14.43;;;;;;;11.48;82.19;100259.39;1474971;88;21411;-81
2023/04/30 05:42:14;;;;;;;18.63;11.23;;;;;;;11.60;82.24;100259.45;1481615;88;21507;-82
2023/04/30 05:44:41;;;;;;;16.90;8.73;;;;;;;11.69;80.86;100262.47;1482704;88;21555;-81
2023/04/30 05:47:10;;;;;;;14.00;8.53;;;;;;;11.74;78.96;100264.16;1480010;88;21366;-81
2023/04/30 05:49:39;;;;;;;18.63;9.57;;;;;;;11.88;79.51;100264.08;1479717;88;22632;-81
2023/04/30 05:52:05;;;;;;;15.07;8.40;;;;;;;11.92;78.43;100264.59;1477067;88;21397;-80
2023/04/30 05:54:32;;;;;;;17.40;9.83;;;;;;;11.92;77.35;100260.11;1481283;88;22298;-82
2023/04/30 05:56:58;;;;;;;22.57;13.47;;;;;;;12.09;78.42;100254.36;1480444;88;21403;-83
2023/04/30 05:59:24;;;;;;;13.50;8.47;;;;;;;12.24;78.16;100265.67;1480483;88;21315;-81
2023/04/30 06:01:51;;;;;;;14.43;9.77;;;;;;;12.27;75.48;100259.54;1464659;88;22403;-80
2023/04/30 06:04:18;;;;;;;15.40;8.07;;;;;;;12.36;75.42;100261.21;1484144;88;21359;-80
2023/04/30 06:06:45;;;;;;;16.23;8.23;;;;;;;12.44;74.24;100262.23;1478990;88;22442;-79
2023/04/30 06:09:11;;;;;;;11.73;7.47;;;;;;;12.49;72.75;100255.95;1477079;88;22253;-79
2023/04/30 06:11:37;;;;;;;12.47;8.87;;;;;;;12.65;74.69;100258.59;1478502;88;21329;-78
2023/04/30 06:14:04;;;;;;;15.53;7.80;;;;;;;12.80;74.19;100258.76;1466871;88;21565;-80
2023/04/30 06:16:30;;;;;;;22.00;9.60;;;;;;;12.97;74.47;100263.06;1475017;88;21323;-80
2023/04/30 06:18:56;;;;;;;17.03;9.70;;;;;;;13.15;72.59;100260.72;1480643;88;21388;-79
2023/04/30 06:21:24;;;;;;;25.07;13.17;;;;;;;13.28;73.35;100260.58;1470900;86;22224;-81
2023/04/30 06:23:52;;;;;;;15.40;10.80;;;;;;;13.48;72.85;100262.36;1476081;88;21388;-80
2023/04/30 06:26:19;;;;;;;13.43;8.60;;;;;;;13.60;71.92;100256.67;1477475;88;21432;-79
2023/04/30 06:28:45;;;;;;;16.83;8.97;;;;;;;13.70;68.10;100259.98;1477218;88;22268;-79
2023/04/30 06:31:12;;;;;;;14.47;9.90;;;;;;;13.84;70.60;100263.25;1476487;88;21403;-81
2023/04/30 06:33:38;;;;;;;17.63;11.17;;;;;;;14.00;71.17;100267.14;1469541;88;21418;-83
2023/04/30 06:36:05;;;;;;;10.73;8.03;;;;;;;14.10;68.31;100265.62;1479273;88;21337;-82
2023/04/30 06:38:31;;;;;;;12.40;8.17;;;;;;;14.16;67.43;100262.76;1480255;88;21330;-81
2023/04/30 06:40:58;;;;;;;17.17;9.70;;;;;;;14.24;67.59;100264.02;1463428;88;21396;-89
2023/04/30 06:43:24;;;;;;;11.73;8.07;;;;;;;14.41;68.69;100268.27;1475010;88;21418;-88
2023/04/30 06:45:50;;;;;;;13.40;7.97;;;;;;;14.60;68.79;100272.82;1479702;88;21499;-89
2023/04/30 06:48:16;;;;;;;14.93;7.70;;;;;;;14.81;68.74;100272.98;1478677;88;21418;-86
2023/04/30 06:50:43;;;;;;;11.43;7.30;;;;;;;14.97;67.97;100273.88;1493039;88;21301;-80
2023/04/30 06:53:13;;;;;;;13.10;7.40;;;;;;;15.04;64.33;100277.45;1489527;88;21793;-79
2023/04/30 06:55:42;;;;;;;12.35;7.12;;;;;;;15.23;65.79;100278.80;1485238;88;21433;-90
2023/04/30 06:58:08;;;;;;;12.03;7.17;;;;;;;15.36;66.69;100274.98;1474898;88;21403;-88
2023/04/30 07:00:35;;;;;;;12.73;7.20;;;;;;;15.57;66.05;100276.44;1481407;88;21551;-88
2023/04/30 07:03:02;;;;;;;8.03;5.70;;;;;;;15.70;66.33;100274.98;1481591;88;21433;-90
2023/04/30 07:05:31;;;;;;;10.83;6.30;;;;;;;15.81;65.58;100275.03;1471952;88;21610;-89
2023/04/30 07:08:00;;;;;;;7.83;6.17;;;;;;;15.99;63.36;100274.13;1461995;88;22402;-89
2023/04/30 07:10:26;;;;;;;10.67;6.13;;;;;;;16.04;61.44;100279.73;1476116;88;21543;-88
2023/04/30 07:12:53;;;;;;;9.70;6.17;;;;;;;15.90;60.72;100275.25;1473922;88;22447;-85
2023/04/30 07:15:19;;;;;;;9.73;5.60;;;;;;;15.86;62.77;100273.98;1481112;88;21381;-87
2023/04/30 07:17:45;;;;;;;9.13;6.57;;;;;;;15.98;63.49;100273.30;1480514;88;21705;-85
2023/04/30 07:20:14;;;;;;;8.90;5.93;;;;;;;16.05;63.39;100276.05;1474271;88;21624;-86
2023/04/30 07:22:43;;;;;;;7.20;5.37;;;;;;;16.07;62.86;100284.70;1480712;88;21404;-85
2023/04/30 07:25:14;;;;;;;9.07;5.93;;;;;;;16.09;61.86;100276.01;1398206;88;21293;-84
2023/04/30 07:27:39;;;;;;;14.23;6.80;;;;;;;16.29;63.47;100267.41;1488093;86;21477;-84
2023/04/30 07:30:07;;;;;;;9.40;5.77;;;;;;;16.12;62.57;100263.62;1474664;88;21544;-87
2023/04/30 07:32:36;;;;;;;10.80;7.10;;;;;;;16.13;62.66;100263.92;1472173;88;21554;-84
2023/04/30 07:35:03;;;;;;;31.87;16.90;;;;;;;16.38;63.90;100263.08;1399600;88;21367;-88
2023/04/30 07:37:29;;;;;;;10.37;6.67;;;;;;;16.54;61.82;100263.84;1387965;89;21397;-91
2023/04/30 07:39:56;;;;;;;11.07;6.00;;;;;;;16.65;61.15;100264.16;1452857;88;22931;-85
2023/04/30 07:42:22;;;;;;;13.83;8.27;;;;;;;16.84;63.01;100265.92;1477787;88;21544;-82
2023/04/30 07:44:48;;;;;;;9.27;5.03;;;;;;;16.91;61.65;100262.78;1483155;88;21344;-87
2023/04/30 07:47:15;;;;;;;10.83;7.50;;;;;;;16.95;61.08;100265.40;1478147;88;21558;-86
2023/04/30 07:49:42;;;;;;;6.57;4.80;;;;;;;17.10;61.02;100267.98;1477872;88;21566;-85
2023/04/30 07:52:11;;;;;;;13.47;5.13;;;;;;;16.89;60.76;100280.87;1475259;88;21373;-86
2023/04/30 07:54:37;;;;;;;5.60;4.70;;;;;;;16.84;61.41;100280.62;1464799;88;21567;-86
2023/04/30 07:57:07;;;;;;;6.70;4.20;;;;;;;16.78;61.47;100270.70;1472257;88;21337;-84
2023/04/30 07:59:33;;;;;;;7.40;5.27;;;;;;;16.80;61.02;100264.14;1480468;88;22742;-85
2023/04/30 08:02:00;;;;;;;8.90;4.97;;;;;;;16.93;61.68;100272.78;1460275;88;21373;-87
2023/04/30 08:04:27;;;;;;;11.30;5.37;;;;;;;17.17;61.49;100268.02;1475100;88;21403;-83
2023/04/30 08:06:53;;;;;;;10.93;4.40;;;;;;;17.37;61.66;100264.97;1476100;88;21587;-86
2023/04/30 08:09:19;;;;;;;23.07;6.07;;;;;;;17.39;60.42;100264.27;1476939;88;22321;-80
2023/04/30 08:11:45;;;;;;;8.73;4.30;;;;;;;17.63;61.62;100270.17;1477785;88;21367;-88
2023/04/30 08:14:11;;;;;;;5.47;3.87;;;;;;;17.76;60.51;100270.25;1478032;88;21382;-85
2023/04/30 08:16:37;;;;;;;8.13;3.10;;;;;;;17.66;59.97;100279.14;1473008;88;21419;-87
2023/04/30 08:19:04;;;;;;;10.17;2.07;;;;;;;17.73;61.76;100277.34;1474018;88;21558;-85
2023/04/30 08:21:30;;;;;;;3.27;1.77;;;;;;;17.77;61.07;100277.25;1475822;88;21374;-82
2023/04/30 08:23:56;;;;;;;4.80;1.73;;;;;;;17.35;59.37;100277.73;1475882;88;22402;-88
2023/04/30 08:26:24;;;;;;;2.33;2.13;;;;;;;17.07;60.27;100272.38;1461851;88;21536;-85
2023/04/30 08:28:50;;;;;;;9.67;2.80;;;;;;;17.23;60.36;100290.79;1475315;88;22217;-86
2023/04/30 08:31:17;;;;;;;3.37;2.30;;;;;;;17.12;61.78;100288.16;1469992;88;21358;-85
2023/04/30 08:33:43;;;;;;;4.60;2.20;;;;;;;16.95;61.38;100290.80;1472950;88;21403;-86
2023/04/30 08:36:09;;;;;;;4.20;2.43;;;;;;;16.73;62.57;100302.47;1473009;88;21359;-86
2023/04/30 08:38:36;;;;;;;2.50;2.00;;;;;;;16.88;63.51;100293.91;1478269;88;21514;-85
2023/04/30 08:41:13;;;;;;;3.73;2.83;;;;;;;17.25;62.54;100285.27;1476365;88;22808;-86
2023/04/30 08:43:43;;;;;;;7.63;4.00;;;;;;;17.72;61.50;100293.06;1478537;88;21500;-86
2023/04/30 08:46:15;;;;;;;6.35;3.17;;;;;;;18.14;61.60;100280.53;1537917;88;21293;-87
2023/04/30 08:48:42;;;;;;;10.20;3.27;;;;;;;18.16;59.02;100302.08;1563406;88;21323;-86
2023/04/30 08:51:08;;;;;;;5.77;2.90;;;;;;;18.35;60.35;100287.59;1434394;88;21464;-87
2023/04/30 08:53:37;;;;;;;10.98;3.52;;;;;;;18.55;59.32;100285.79;1483749;88;21418;-85
2023/04/30 08:56:04;;;;;;;4.07;3.10;;;;;;;18.24;59.13;100289.00;1477613;88;22506;-85
2023/04/30 08:58:31;;;;;;;4.73;2.90;;;;;;;18.04;60.29;100288.44;1475979;88;21410;-86
2023/04/30 09:00:58;;;;;;;11.00;2.93;;;;;;;18.04;60.13;100291.11;1478588;88;21507;-85
2023/04/30 09:03:25;;;;;;;2.77;2.03;;;;;;;17.72;58.84;100295.26;1400553;88;21256;-86
2023/04/30 09:05:51;;;;;;;5.00;2.30;;;;;;;17.95;59.56;100296.81;1401431;88;21249;-83
2023/04/30 09:08:19;;;;;;;8.03;2.40;;;;;;;18.14;60.15;100294.75;1402429;88;22231;-87
2023/04/30 09:10:45;;;;;;;9.83;2.53;;;;;;;18.12;58.70;100299.47;1400692;88;21397;-84
2023/04/30 09:13:12;;;;;;;6.50;2.42;;;;;;;18.20;58.51;100297.14;1407542;88;22227;-87
2023/04/30 09:15:50;;;;;;;4.17;2.33;;;;;;;17.83;59.10;100301.09;1401194;88;21241;-85
2023/04/30 09:18:17;;;;;;;2.93;2.43;;;;;;;17.73;59.73;100298.75;1385538;89;21248;-87
2023/04/30 09:21:02;;;;;;;3.13;2.53;;;;;;;17.90;60.04;100301.45;1401426;88;21337;-84
2023/04/30 09:23:29;;;;;;;11.70;2.40;;;;;;;18.12;59.79;100294.63;1563389;88;22267;-80
2023/04/30 09:25:56;;;;;;;2.50;2.00;;;;;;;18.32;60.44;100292.84;1400501;88;21226;-79
2023/04/30 09:28:25;;;;;;;2.33;2.12;;;;;;;18.58;57.78;100298.78;1431329;88;22446;-81
2023/04/30 09:30:52;;;;;;;2.20;2.00;;;;;;;18.65;57.71;100300.16;1476825;88;22652;-80
2023/04/30 09:33:19;;;;;;;6.80;2.02;;;;;;;18.57;56.62;100294.46;1479245;88;21402;-82
2023/04/30 09:35:45;;;;;;;3.65;2.22;;;;;;;18.80;58.43;100296.80;1472148;88;21528;-83
2023/04/30 09:38:31;;;;;;;4.37;2.30;;;;;;;18.48;56.26;100297.84;1472656;88;21611;-82
2023/04/30 09:40:59;;;;;;;9.23;2.37;;;;;;;18.59;57.33;100300.45;1406455;88;21445;-83
2023/04/30 09:43:30;;;;;;;9.18;2.70;;;;;;;18.92;57.57;100299.69;1399867;88;22284;-82
2023/04/30 09:45:58;;;;;;;2.58;2.33;;;;;;;19.11;57.34;100298.88;1546713;88;21151;-84
2023/04/30 09:48:31;;;;;;;2.27;1.80;;;;;;;18.72;56.07;100299.64;1399255;88;21256;-81
2023/04/30 09:50:54;;;;;;;3.07;2.37;;;;;;;18.88;56.82;100302.48;1397255;89;21286;-82
2023/04/30 09:53:22;;;;;;;2.47;2.27;;;;;;;18.45;57.27;100297.43;1401429;88;21650;-82
2023/04/30 09:55:50;;;;;;;3.83;2.45;;;;;;;18.67;58.26;100300.76;1400637;88;22277;-84
2023/04/30 09:58:18;;;;;;;1.70;1.60;;;;;;;18.49;56.44;100301.34;1402293;88;21301;-83
2023/04/30 10:00:47;;;;;;;3.37;2.58;;;;;;;18.30;57.58;100298.94;1436488;88;21433;-82
2023/04/30 10:03:15;;;;;;;2.02;1.52;;;;;;;18.10;58.64;100306.90;1539286;88;22047;-82
2023/04/30 10:10:05;;;;;;;7.97;2.58;;;;;;;17.94;58.54;100307.22;1478248;88;21366;-82
2023/04/30 10:12:48;;;;;;;2.58;1.87;;;;;;;17.56;59.26;100307.60;1480944;88;22297;-82
2023/04/30 10:15:27;;;;;;;2.85;1.85;;;;;;;17.72;59.43;100309.13;1478191;88;22289;-84
2023/04/30 10:17:58;;;;;;;1.80;1.70;;;;;;;17.42;60.48;100310.70;1478540;88;22253;-83
2023/04/30 10:20:32;;;;;;;2.13;1.93;;;;;;;17.38;60.43;100305.43;1479552;88;21373;-81
2023/04/30 10:26:57;;;;;;;4.77;2.17;;;;;;;17.40;61.61;100301.20;1479718;88;21462;-81
2023/04/30 10:29:23;;;;;;;2.73;1.73;;;;;;;17.48;61.00;100295.71;1473216;88;22335;-81
2023/04/30 10:31:52;;;;;;;10.53;2.63;;;;;;;17.58;60.89;100293.01;1473282;88;21426;-81
2023/04/30 10:34:29;;;;;;;3.03;1.93;;;;;;;17.67;60.78;100289.66;1475526;88;22527;-80
2023/04/30 10:37:00;;;;;;;1.90;1.80;;;;;;;17.70;60.78;100281.75;1495791;88;21566;-80
2023/04/30 10:39:27;;;;;;;2.43;1.50;;;;;;;17.69;60.29;100280.08;1460530;88;21389;-79
2023/04/30 10:42:05;;;;;;;4.67;2.00;;;;;;;17.99;60.80;100281.51;1477911;88;21389;-81
2023/04/30 10:44:35;;;;;;;2.60;2.40;;;;;;;18.31;59.70;100276.47;1473886;88;21330;-80
2023/04/30 10:47:03;;;;;;;2.97;2.20;;;;;;;18.35;58.10;100276.36;1480494;88;21389;-79
2023/04/30 10:49:30;;;;;;;2.52;2.20;;;;;;;18.66;59.75;100281.69;1557071;88;21323;-79
2023/04/30 10:51:59;;;;;;;2.80;1.80;;;;;;;18.99;59.01;100278.23;1401426;88;21330;-78
2023/04/30 10:54:33;;;;;;;1.70;1.60;;;;;;;19.13;57.66;100278.54;1403065;88;21293;-78
2023/04/30 10:57:13;;;;;;;1.87;1.30;;;;;;;19.01;55.69;100282.88;1471821;88;21433;-80
2023/04/30 11:02:39;;;;;;;2.08;1.65;;;;;;;18.69;55.68;100275.41;1463959;87;20344;-81
2023/04/30 11:05:10;;;;;;;1.92;1.67;;;;;;;18.49;56.75;100279.39;1471446;87;21508;-81
2023/04/30 11:07:39;;;;;;;2.12;1.92;;;;;;;18.80;57.33;100274.01;1462654;89;21685;-82
2023/04/30 11:10:08;;;;;;;2.08;1.82;;;;;;;19.01;56.46;100274.84;1479085;89;22379;-80
2023/04/30 11:12:36;;;;;;;1.55;1.32;;;;;;;19.03;56.25;100278.97;1461641;89;21582;-82
2023/04/30 11:15:12;;;;;;;4.72;1.72;;;;;;;19.10;55.66;100273.59;1462136;89;21537;-79
2023/04/30 11:17:39;;;;;;;4.37;1.65;;;;;;;18.81;55.42;100283.69;1463079;89;22572;-81
2023/04/30 11:20:09;;;;;;;2.87;1.47;;;;;;;18.36;56.41;100276.69;1447031;89;21983;-81
2023/04/30 11:22:35;;;;;;;5.28;3.08;;;;;;;17.94;57.93;100274.58;1437725;90;22628;-81
2023/04/30 11:25:08;;;;;;;3.10;1.62;;;;;;;17.83;58.71;100278.34;1437137;90;21374;-82
2023/04/30 11:27:37;;;;;;;4.42;1.50;;;;;;;17.68;58.67;100281.11;1440069;90;22329;-82
2023/04/30 11:30:14;;;;;;;9.68;1.55;;;;;;;17.74;59.04;100273.63;1437365;90;22505;-81
2023/04/30 11:32:44;;;;;;;1.72;1.60;;;;;;;18.28;58.63;100280.89;1442005;90;21925;-81
2023/04/30 11:35:10;;;;;;;;;;;;;;;18.56;55.27;100267.84;1445551;90;21504;-84
2023/04/30 11:37:43;;;;;;;3.98;1.60;;;;;;;18.53;56.28;100271.79;1441459;90;20287;-85
2023/04/30 11:40:14;;;;;;;1.52;1.35;;;;;;;18.94;56.68;100274.84;1478184;90;21390;-84